Arbil, Iraq
Current Conditions -  °F | °C
As of 1:00 PM on Wednesday 22 Oct 2014 (Local Time) from ORER Reporting Station
Few Clouds Few Clouds  
Wind Chill: 21°   Ceiling: Unl
Heat Index: 21°   Visibility: 6mi
Dew Point:   Wind: 2mph
Humidity: 46%   Direction: NA
Pressure: 30.12"   Gusts: NA
Location:  36.19°N, 44.01°E
Report Text: ORER 221000Z VRB02KT 9000 FEW040 21/09 Q1020
Loading
Personal Weather Stations






























Interactive Weather Map
Tropical Storm Tracking
New forecast layout! Learn more

10-Day Weather Forecast

Advertisements
Track Severe Weather on mobile